createdAt,value
2018-03-02T00:00:23.715Z,-6.10
2018-03-02T00:02:51.388Z,-6.00
2018-03-02T00:05:18.962Z,-6.00
2018-03-02T00:07:46.916Z,-6.10
2018-03-02T00:10:15.266Z,-6.00
2018-03-02T00:12:47.602Z,-6.20
2018-03-02T00:15:15.872Z,-6.20
2018-03-02T00:17:43.393Z,-6.20
2018-03-02T00:20:10.960Z,-6.20
2018-03-02T00:22:38.921Z,-6.30
2018-03-02T00:38:11.565Z,-6.30
2018-03-02T00:40:39.866Z,-6.90
2018-03-02T00:43:08.274Z,-6.90
2018-03-02T00:45:38.773Z,-6.80
2018-03-02T00:48:06.334Z,-6.60
2018-03-02T00:50:34.952Z,-6.50
2018-03-02T00:53:06.222Z,-6.50
2018-03-02T00:55:33.769Z,-6.50
2018-03-02T00:58:02.056Z,-6.50
2018-03-02T01:00:30.027Z,-6.60
2018-03-02T01:02:57.559Z,-6.50
2018-03-02T01:05:25.114Z,-6.50
2018-03-02T01:07:52.636Z,-6.60
2018-03-02T01:10:21.411Z,-6.50
2018-03-02T01:12:51.003Z,-6.60
2018-03-02T01:15:18.575Z,-6.60
2018-03-02T01:17:46.101Z,-6.60
2018-03-02T01:20:14.205Z,-6.60
2018-03-02T01:22:41.796Z,-6.60
2018-03-02T01:25:09.399Z,-6.60
2018-03-02T01:27:37.547Z,-6.60
2018-03-02T01:30:06.141Z,-6.50
2018-03-02T01:42:18.710Z,-6.60
2018-03-02T01:44:46.749Z,-7.30
2018-03-02T01:47:15.669Z,-7.20
2018-03-02T01:49:47.251Z,-7.20
2018-03-02T01:52:14.787Z,-7.10
2018-03-02T01:54:43.109Z,-7.00
2018-03-02T01:57:10.685Z,-7.00
2018-03-02T01:59:39.457Z,-7.00
2018-03-02T02:02:07.693Z,-7.00
2018-03-02T02:04:35.233Z,-6.90
2018-03-02T02:07:02.768Z,-6.90
2018-03-02T02:09:30.298Z,-7.00
2018-03-02T02:11:58.851Z,-7.00
2018-03-02T02:14:27.099Z,-6.90
2018-03-02T02:16:59.134Z,-7.10
2018-03-02T02:19:27.603Z,-7.10
2018-03-02T02:21:55.134Z,-7.00
2018-03-02T02:24:23.353Z,-7.10
2018-03-02T02:26:52.023Z,-7.10
2018-03-02T02:29:19.553Z,-7.10
2018-03-02T02:31:47.797Z,-7.00
2018-03-02T02:34:19.934Z,-7.00
2018-03-02T02:36:48.453Z,-7.00
2018-03-02T02:39:17.076Z,-6.90
2018-03-02T02:41:44.627Z,-7.00
2018-03-02T02:44:13.017Z,-7.00
2018-03-02T02:46:40.565Z,-7.10
2018-03-02T02:49:14.183Z,-7.20
2018-03-02T02:51:42.547Z,-7.10
2018-03-02T02:54:17.856Z,-7.10
2018-03-02T02:56:46.896Z,-7.30
2018-03-02T02:59:14.403Z,-7.30
2018-03-02T03:11:31.971Z,-7.30
2018-03-02T03:13:59.620Z,-7.70
2018-03-02T03:16:27.155Z,-7.60
2018-03-02T03:18:55.536Z,-7.50
2018-03-02T03:21:23.096Z,-7.40
2018-03-02T03:23:51.423Z,-7.40
2018-03-02T03:26:23.558Z,-7.30
2018-03-02T03:28:51.949Z,-7.20
2018-03-02T03:31:19.584Z,-7.20
2018-03-02T03:33:47.128Z,-7.20
2018-03-02T03:36:14.654Z,-7.30
2018-03-02T03:38:42.270Z,-7.30
2018-03-02T03:41:13.785Z,-7.30
2018-03-02T03:43:42.359Z,-7.20
2018-03-02T03:46:10.642Z,-7.30
2018-03-02T03:48:39.470Z,-7.30
2018-03-02T03:51:07.809Z,-7.40
2018-03-02T03:53:40.646Z,-7.40
2018-03-02T03:56:13.224Z,-7.40
2018-03-02T03:58:41.085Z,-7.40
2018-03-02T04:01:09.283Z,-7.60
2018-03-02T04:03:36.802Z,-7.60
2018-03-02T04:06:07.525Z,-7.70
2018-03-02T04:08:35.047Z,-7.60
2018-03-02T04:11:03.237Z,-7.60
2018-03-02T04:13:36.038Z,-7.70
2018-03-02T04:25:52.660Z,-7.70
2018-03-02T04:28:20.196Z,-8.30
2018-03-02T04:30:47.716Z,-8.20
2018-03-02T04:33:17.432Z,-8.00
2018-03-02T04:35:46.477Z,-7.90
2018-03-02T04:38:18.439Z,-7.90
2018-03-02T04:40:46.853Z,-7.90
2018-03-02T04:43:15.293Z,-7.80
2018-03-02T04:45:43.257Z,-7.90
2018-03-02T04:48:10.777Z,-7.80
2018-03-02T04:50:40.122Z,-7.80
2018-03-02T04:53:07.653Z,-7.90
2018-03-02T04:55:41.383Z,-7.90
2018-03-02T04:58:08.909Z,-8.00
2018-03-02T05:00:37.796Z,-8.00
2018-03-02T05:03:06.557Z,-7.90
2018-03-02T05:05:34.083Z,-8.00
2018-03-02T05:08:01.740Z,-8.00
2018-03-02T05:10:29.256Z,-8.00
2018-03-02T05:13:01.361Z,-8.10
2018-03-02T05:15:28.894Z,-8.10
2018-03-02T05:17:57.174Z,-8.10
2018-03-02T05:20:25.467Z,-8.00
2018-03-02T05:22:54.293Z,-8.00
2018-03-02T05:25:21.871Z,-8.00
2018-03-02T05:27:49.378Z,-8.00
2018-03-02T05:30:17.765Z,-7.80
2018-03-02T05:32:45.340Z,-7.80
2018-03-02T05:35:13.433Z,-7.90
2018-03-02T05:37:45.544Z,-7.90
2018-03-02T05:40:13.074Z,-8.00
2018-03-02T05:42:40.614Z,-7.90
2018-03-02T05:45:11.620Z,-7.90
2018-03-02T05:47:39.178Z,-7.80
2018-03-02T05:50:06.704Z,-7.80
2018-03-02T05:52:38.892Z,-8.10
2018-03-02T05:55:07.268Z,-8.10
2018-03-02T06:10:35.388Z,-8.60
2018-03-02T06:13:03.001Z,-8.60
2018-03-02T06:15:30.898Z,-8.50
2018-03-02T06:18:02.425Z,-8.40
2018-03-02T06:20:30.077Z,-8.40
2018-03-02T06:22:57.647Z,-8.20
2018-03-02T06:25:26.202Z,-8.00
2018-03-02T06:27:54.942Z,-8.00
2018-03-02T06:30:23.658Z,-8.00
2018-03-02T06:32:51.185Z,-7.90
2018-03-02T06:35:18.724Z,-7.90
2018-03-02T06:50:47.500Z,-8.70
2018-03-02T06:53:16.172Z,-8.70
2018-03-02T06:55:49.239Z,-8.20
2018-03-02T06:58:17.686Z,-8.20
2018-03-02T07:00:49.977Z,-8.10
2018-03-02T07:03:18.093Z,-7.80
2018-03-02T07:05:47.079Z,-7.60
2018-03-02T07:08:15.393Z,-7.30
2018-03-02T07:10:43.648Z,-7.30
2018-03-02T07:13:12.390Z,-7.10
2018-03-02T07:15:41.218Z,-6.70
2018-03-02T07:18:10.909Z,-5.30
2018-03-02T07:20:40.451Z,-5.20
2018-03-02T07:23:07.974Z,-5.20
2018-03-02T07:25:37.530Z,-3.90
2018-03-02T07:28:05.814Z,-3.90
2018-03-02T07:30:34.440Z,-3.40
2018-03-02T07:33:03.429Z,-3.00
2018-03-02T07:35:31.037Z,-2.70
2018-03-02T07:37:59.027Z,-2.40
2018-03-02T07:40:27.150Z,-1.30
2018-03-02T07:42:55.869Z,-0.50
2018-03-02T07:45:24.063Z,-0.50
2018-03-02T07:47:51.642Z,-0.20
2018-03-02T07:50:19.273Z,0.30
2018-03-02T07:52:46.825Z,1.00
2018-03-02T07:55:15.353Z,0.90
2018-03-02T07:57:42.873Z,0.50
2018-03-02T08:00:10.446Z,0.90
2018-03-02T08:02:38.104Z,1.40
2018-03-02T08:05:06.294Z,1.10
2018-03-02T08:07:41.780Z,1.20
2018-03-02T08:10:10.121Z,0.80
2018-03-02T08:12:42.697Z,0.90
2018-03-02T08:15:10.254Z,1.10
2018-03-02T08:17:38.503Z,0.90
2018-03-02T08:20:06.037Z,0.90
2018-03-02T08:22:37.919Z,1.00
2018-03-02T08:25:05.472Z,1.10
2018-03-02T13:58:14.741Z,9.50
2018-03-02T14:03:39.893Z,9.10
2018-03-02T14:06:11.617Z,9.50
2018-03-02T14:08:39.896Z,9.50
2018-03-02T14:11:07.431Z,9.00
2018-03-02T14:13:39.078Z,8.90
2018-03-02T14:16:06.709Z,9.30
2018-03-02T14:18:34.243Z,9.80
2018-03-02T14:21:01.871Z,10.70
2018-03-02T14:23:29.406Z,10.60
2018-03-02T14:25:57.031Z,10.60
2018-03-02T14:28:28.469Z,10.40
2018-03-02T14:30:59.649Z,10.40
2018-03-02T14:33:29.868Z,10.40
2018-03-02T14:35:58.210Z,10.50
2018-03-02T14:38:25.754Z,10.50
2018-03-02T14:40:53.304Z,10.00
2018-03-02T14:43:20.833Z,9.20
2018-03-02T14:45:48.429Z,8.60
2018-03-02T14:48:16.491Z,8.10
2018-03-02T14:50:47.785Z,8.00
2018-03-02T14:53:15.519Z,8.40
2018-03-02T14:55:47.088Z,8.20
2018-03-02T14:58:15.667Z,7.90
2018-03-02T15:00:43.189Z,7.20
2018-03-02T15:03:11.041Z,6.80
2018-03-02T15:05:39.764Z,6.00
2018-03-02T15:08:07.558Z,6.00
2018-03-02T15:10:39.394Z,5.70
2018-03-02T15:13:06.911Z,5.40
2018-03-02T15:15:34.919Z,4.70
2018-03-02T15:18:02.468Z,4.20
2018-03-02T15:20:29.989Z,4.00
2018-03-02T15:23:02.136Z,3.30
2018-03-02T15:25:32.293Z,3.20
2018-03-02T15:28:00.295Z,3.20
2018-03-02T15:30:27.992Z,2.80
2018-03-02T15:32:56.170Z,2.70
2018-03-02T15:35:27.952Z,2.70
2018-03-02T15:38:00.139Z,2.30
2018-03-02T15:40:27.684Z,2.30
2018-03-02T15:42:56.227Z,1.70
2018-03-02T16:16:12.433Z,-0.20
2018-03-02T16:18:40.305Z,-0.20
2018-03-02T16:24:17.041Z,-0.50
2018-03-02T16:26:44.631Z,-0.60
2018-03-02T16:42:16.073Z,-0.70
2018-03-02T16:44:43.977Z,-1.80
2018-03-02T16:47:11.509Z,-1.80
2018-03-02T16:49:39.620Z,-1.70
2018-03-02T16:52:07.148Z,-1.90
2018-03-02T16:54:34.680Z,-2.00
2018-03-02T16:57:05.853Z,-2.00
2018-03-02T16:59:33.381Z,-2.00
2018-03-02T17:02:04.926Z,-2.10
2018-03-02T17:04:33.300Z,-2.10
2018-03-02T17:07:05.081Z,-2.10
2018-03-02T17:09:32.641Z,-2.10
2018-03-02T17:12:00.170Z,-2.10
2018-03-02T17:14:28.819Z,-2.20
2018-03-02T17:16:56.352Z,-2.30
2018-03-02T17:19:23.910Z,-2.30
2018-03-02T17:21:56.181Z,-2.30
2018-03-02T17:24:25.448Z,-2.30
2018-03-02T17:26:53.729Z,-2.40
2018-03-02T17:29:22.018Z,-2.30
2018-03-02T17:31:50.374Z,-2.40
2018-03-02T17:34:18.669Z,-2.60
2018-03-02T17:36:46.391Z,-2.60
2018-03-02T17:39:13.961Z,-2.70
2018-03-02T17:41:41.607Z,-2.60
2018-03-02T17:44:09.219Z,-2.70
2018-03-02T17:46:36.781Z,-2.80
2018-03-02T17:49:04.327Z,-2.90
2018-03-02T17:51:32.614Z,-3.00
2018-03-02T17:54:00.290Z,-3.00
2018-03-02T18:06:13.172Z,-2.90
2018-03-02T18:08:40.726Z,-3.50
2018-03-02T18:11:08.295Z,-3.40
2018-03-02T18:13:35.822Z,-3.30
2018-03-02T18:16:04.111Z,-3.20
2018-03-02T18:18:32.416Z,-3.10
2018-03-02T18:20:59.933Z,-3.20
2018-03-02T18:23:28.977Z,-3.20
2018-03-02T18:25:56.514Z,-3.20
2018-03-02T18:28:24.054Z,-3.10
2018-03-02T18:30:52.480Z,-3.10
2018-03-02T18:33:20.378Z,-3.10
2018-03-02T18:35:47.920Z,-3.10
2018-03-02T18:38:15.455Z,-3.10
2018-03-02T18:40:43.037Z,-3.20
2018-03-02T18:43:10.583Z,-3.30
2018-03-02T18:45:38.232Z,-3.40
2018-03-02T18:48:05.772Z,-3.40
2018-03-02T18:50:34.166Z,-3.40
2018-03-02T18:53:01.700Z,-3.40
2018-03-02T18:55:29.992Z,-3.30
2018-03-02T18:57:57.577Z,-3.40
2018-03-02T19:00:25.100Z,-3.40
2018-03-02T19:02:53.389Z,-3.30
2018-03-02T19:05:20.974Z,-3.30
2018-03-02T19:07:48.522Z,-3.30
2018-03-02T19:20:06.124Z,-3.30
2018-03-02T19:22:33.693Z,-4.10
2018-03-02T19:25:01.231Z,-4.00
2018-03-02T19:27:28.828Z,-3.80
2018-03-02T19:29:56.507Z,-3.70
2018-03-02T19:32:24.958Z,-3.80
2018-03-02T19:34:52.818Z,-3.80
2018-03-02T19:37:20.386Z,-3.80
2018-03-02T19:39:48.006Z,-3.80
2018-03-02T19:42:16.414Z,-3.80
2018-03-02T19:44:44.164Z,-3.80
2018-03-02T19:47:11.843Z,-3.70
2018-03-02T19:49:39.478Z,-3.90
2018-03-02T19:52:07.040Z,-4.00
2018-03-02T19:54:35.418Z,-3.80
2018-03-02T19:57:03.025Z,-3.90
2018-03-02T19:59:30.630Z,-3.80
2018-03-02T20:01:58.970Z,-3.90
2018-03-02T20:04:26.515Z,-3.90
2018-03-02T20:06:54.061Z,-3.90
2018-03-02T20:09:21.603Z,-3.90
2018-03-02T20:11:49.184Z,-3.80
2018-03-02T20:14:16.837Z,-3.80
2018-03-02T20:16:44.406Z,-3.80
2018-03-02T20:19:11.974Z,-3.80
2018-03-02T20:21:39.512Z,-3.90
2018-03-02T20:24:07.398Z,-4.00
2018-03-02T20:26:34.996Z,-4.00
2018-03-02T20:29:02.582Z,-4.00
2018-03-02T20:31:30.912Z,-4.10
2018-03-02T20:33:58.505Z,-4.10
2018-03-02T20:36:26.060Z,-4.10
2018-03-02T20:38:53.621Z,-4.10
2018-03-02T20:41:21.190Z,-4.20
2018-03-02T20:43:49.526Z,-4.30
2018-03-02T20:46:17.051Z,-4.30
2018-03-02T20:48:44.617Z,-4.20
2018-03-02T20:51:12.169Z,-4.20
2018-03-02T20:53:39.774Z,-4.20
2018-03-02T20:56:07.294Z,-4.20
2018-03-02T20:58:35.669Z,-4.20
2018-03-02T21:01:03.352Z,-4.30
2018-03-02T21:03:30.942Z,-4.20
2018-03-02T21:05:58.566Z,-4.20
2018-03-02T21:08:26.157Z,-4.20
2018-03-02T21:10:53.788Z,-4.10
2018-03-02T21:13:21.378Z,-4.10
2018-03-02T21:15:48.948Z,-4.20
2018-03-02T21:18:16.505Z,-4.20
2018-03-02T21:20:44.059Z,-4.20
2018-03-02T21:23:11.674Z,-4.20
2018-03-02T21:25:40.022Z,-4.20
2018-03-02T21:28:07.581Z,-4.30
2018-03-02T21:30:35.150Z,-4.20
2018-03-02T21:33:02.866Z,-4.20
2018-03-02T21:35:30.417Z,-4.20
2018-03-02T21:37:57.961Z,-4.30
2018-03-02T21:40:26.278Z,-4.30
2018-03-02T21:42:53.841Z,-4.30
2018-03-02T21:45:21.386Z,-4.40
2018-03-02T21:47:48.938Z,-4.40
2018-03-02T21:50:16.506Z,-4.40
2018-03-02T21:52:44.047Z,-4.50
2018-03-02T21:55:11.584Z,-4.50
2018-03-02T21:57:39.883Z,-4.60
2018-03-02T22:00:07.398Z,-4.60
2018-03-02T22:02:35.006Z,-4.60
2018-03-02T22:05:02.535Z,-4.60
2018-03-02T22:07:30.887Z,-4.60
2018-03-02T22:09:58.421Z,-4.60
2018-03-02T22:12:29.817Z,-4.60
2018-03-02T22:14:57.376Z,-4.70
2018-03-02T22:17:24.918Z,-4.70
2018-03-02T22:19:52.449Z,-4.70
2018-03-02T22:22:19.968Z,-4.80
2018-03-02T22:24:48.305Z,-4.80
2018-03-02T22:27:15.859Z,-4.80
2018-03-02T22:29:43.394Z,-4.80
2018-03-02T22:32:11.116Z,-4.70
2018-03-02T22:34:38.661Z,-4.70
2018-03-02T22:37:06.223Z,-4.70
2018-03-02T22:39:34.204Z,-4.70
2018-03-02T22:42:02.506Z,-4.80
2018-03-02T22:44:31.012Z,-5.00
2018-03-02T22:46:58.606Z,-5.00
2018-03-02T22:49:26.219Z,-5.00
2018-03-02T22:51:53.746Z,-5.00
2018-03-02T22:54:21.368Z,-5.00
2018-03-02T22:56:48.981Z,-4.90
2018-03-02T22:59:17.296Z,-4.90
2018-03-02T23:01:44.840Z,-4.90
2018-03-02T23:04:12.407Z,-4.80
2018-03-02T23:06:39.973Z,-4.80
2018-03-02T23:09:07.519Z,-4.90
2018-03-02T23:11:35.070Z,-4.80
2018-03-02T23:14:03.360Z,-5.00
2018-03-02T23:16:30.889Z,-5.00
2018-03-02T23:18:59.218Z,-5.00
2018-03-02T23:21:26.767Z,-5.00
2018-03-02T23:23:54.349Z,-5.00
2018-03-02T23:26:21.917Z,-4.90
2018-03-02T23:28:49.577Z,-4.90
2018-03-02T23:31:17.197Z,-5.00
2018-03-02T23:33:44.744Z,-5.00
2018-03-02T23:36:13.069Z,-5.10
2018-03-02T23:38:40.614Z,-5.10
2018-03-02T23:41:08.247Z,-5.10
2018-03-02T23:43:36.539Z,-5.00
2018-03-02T23:46:04.077Z,-5.10
2018-03-02T23:48:32.351Z,-5.30
2018-03-02T23:51:01.507Z,-5.40
2018-03-02T23:53:29.311Z,-5.50
2018-03-02T23:55:57.611Z,-5.50
2018-03-02T23:58:25.162Z,-5.60
